Terminal Aerodrome Forecast
Issued by NWS

Home | Current Version | Previous Version | Text Only | Print | Product List | Glossary On
Versions: 1 2 3 4 5 6 7 8 9 10 11 12 13 14 15 16 17 18 19 20 21 22 23 24 25 26
000
FTAK31 PAJK 160538
TAFAPG
TAF
PAPG 160538Z 1606/1706 VRB03KT 6SM -RA BR SCT007 BKN025 OVC030
     FM161200 VRB03KT 5SM -RA BR SCT007 BKN015 OVC025
     FM162100 07005KT P6SM -RA SCT025 OVC050
     AMD LTD TO CLD VIS AND WIND 1606/1615=

USA.gov is the U.S. government's official web portal to all federal, state and local government web resources and services.